DLH644 EDDF-UAAA
Flight info
| Callsign | DLH644 |
|---|---|
| Flight time | N/A |
| Altitude | 31000 |
| Route | CINDY2D CINDY Z74 HAREM DCT ASLEP DCT TAKUT DCT DINKU L603 BESNI/N0475F350 L605 MIQ DCT ALUTU DCT BIBAG L605 ESEGA DCT VELOM DCT STEIN DCT SIRDU DCT GITAS DCT TEGRI DCT LUGEB DCT UDROS DCT CRM UM11 REBLO DCT TABAS DCT MATAL/N0474F370 T916 BALUN/K0878F370 T916 TUROK L855 TIPSA |
| Aircraft | A346/H-SDE2E3FGHIJ3J4J5M1RWXY/LB1D1 |
Departure
| Time | N/A |
|---|---|
| Airport | Frankfurt Main Airport (EDDF) |
Arrival
| Time | 2026-04-26 19:45 |
|---|---|
| Airport | Almaty International Airport (UAAA) |
| Time | Latitude | Longitude | Altitude | Speed | Heading |
|---|---|---|---|---|---|
| 2026-04-26 17:53 | 43.60131 | 58.21251 | 37249 ft | 533 kts | 75° |
| 2026-04-26 17:54 | 43.62953 | 58.36129 | 37236 ft | 534 kts | 75° |
| 2026-04-26 17:54 | 43.64790 | 58.46084 | 37227 ft | 534 kts | 76° |
| 2026-04-26 17:55 | 43.66609 | 58.56049 | 37236 ft | 535 kts | 76° |
| 2026-04-26 17:55 | 43.68415 | 58.65964 | 37238 ft | 534 kts | 76° |
| 2026-04-26 17:56 | 43.70228 | 58.75938 | 37239 ft | 534 kts | 76° |
| 2026-04-26 17:57 | 43.73830 | 58.95906 | 37245 ft | 534 kts | 76° |
| 2026-04-26 17:57 | 43.75314 | 59.04208 | 37247 ft | 534 kts | 76° |
| 2026-04-26 17:58 | 43.78952 | 59.24170 | 37251 ft | 534 kts | 76° |
| 2026-04-26 17:59 | 43.81673 | 59.39178 | 37261 ft | 535 kts | 76° |
| 2026-04-26 17:59 | 43.83475 | 59.49188 | 37261 ft | 535 kts | 76° |
| 2026-04-26 18:00 | 43.85272 | 59.59217 | 37264 ft | 535 kts | 76° |
| 2026-04-26 18:00 | 43.87057 | 59.69250 | 37263 ft | 535 kts | 76° |
| 2026-04-26 18:01 | 43.88799 | 59.79295 | 37264 ft | 535 kts | 76° |
| 2026-04-26 18:01 | 43.90517 | 59.89344 | 37258 ft | 535 kts | 76° |
| 2026-04-26 18:02 | 43.91942 | 59.97692 | 37261 ft | 535 kts | 76° |
| 2026-04-26 18:02 | 43.93932 | 60.09400 | 37261 ft | 535 kts | 76° |
| 2026-04-26 18:03 | 43.95635 | 60.19468 | 37265 ft | 535 kts | 77° |
| 2026-04-26 18:03 | 43.97332 | 60.29554 | 37253 ft | 536 kts | 77° |
| 2026-04-26 18:04 | 43.99019 | 60.39648 | 37263 ft | 536 kts | 77° |
| 2026-04-26 18:05 | 44.01535 | 60.54806 | 37258 ft | 536 kts | 77° |
| 2026-04-26 18:05 | 44.03202 | 60.64925 | 37260 ft | 536 kts | 77° |
| 2026-04-26 18:06 | 44.04861 | 60.75051 | 37265 ft | 536 kts | 77° |
| 2026-04-26 18:06 | 44.06498 | 60.85100 | 37257 ft | 535 kts | 77° |
| 2026-04-26 18:07 | 44.08136 | 60.95215 | 37256 ft | 535 kts | 77° |
| 2026-04-26 18:07 | 44.09765 | 61.05329 | 37258 ft | 535 kts | 77° |
| 2026-04-26 18:08 | 44.11389 | 61.15459 | 37255 ft | 535 kts | 77° |
| 2026-04-26 18:08 | 44.13002 | 61.25601 | 37257 ft | 535 kts | 77° |
| 2026-04-26 18:09 | 44.14227 | 61.35834 | 37247 ft | 535 kts | 85° |
| 2026-04-26 18:09 | 44.14752 | 61.46186 | 37258 ft | 535 kts | 88° |
| 2026-04-26 18:10 | 44.15173 | 61.56546 | 37256 ft | 535 kts | 88° |
| 2026-04-26 18:10 | 44.15608 | 61.66845 | 37252 ft | 535 kts | 88° |
| 2026-04-26 18:11 | 44.16043 | 61.77223 | 37243 ft | 536 kts | 88° |
| 2026-04-26 18:11 | 44.16471 | 61.87598 | 37248 ft | 536 kts | 88° |
| 2026-04-26 18:12 | 44.16891 | 61.97977 | 37244 ft | 535 kts | 88° |
| 2026-04-26 18:12 | 44.17303 | 62.08351 | 37244 ft | 535 kts | 88° |
| 2026-04-26 18:13 | 44.17707 | 62.18720 | 37248 ft | 535 kts | 88° |
| 2026-04-26 18:13 | 44.18100 | 62.29094 | 37242 ft | 535 kts | 88° |
| 2026-04-26 18:14 | 44.18465 | 62.39466 | 37249 ft | 535 kts | 88° |
| 2026-04-26 18:14 | 44.18814 | 62.49851 | 37241 ft | 535 kts | 88° |
| 2026-04-26 18:15 | 44.19159 | 62.60231 | 37243 ft | 535 kts | 88° |
| 2026-04-26 18:15 | 44.19499 | 62.70635 | 37241 ft | 536 kts | 88° |
| 2026-04-26 18:16 | 44.19826 | 62.80971 | 37247 ft | 537 kts | 89° |
| 2026-04-26 18:16 | 44.20305 | 62.96579 | 37246 ft | 537 kts | 89° |
| 2026-04-26 18:17 | 44.20615 | 63.06985 | 37248 ft | 536 kts | 89° |
| 2026-04-26 18:17 | 44.20911 | 63.17386 | 37249 ft | 536 kts | 89° |
| 2026-04-26 18:18 | 44.21070 | 63.27781 | 37243 ft | 536 kts | 90° |
| 2026-04-26 18:18 | 44.21173 | 63.38182 | 37245 ft | 535 kts | 90° |
| 2026-04-26 18:19 | 44.21282 | 63.48516 | 37245 ft | 536 kts | 90° |
| 2026-04-26 18:19 | 44.21391 | 63.58924 | 37240 ft | 537 kts | 90° |
| 2026-04-26 18:20 | 44.21493 | 63.69360 | 37249 ft | 538 kts | 90° |
| 2026-04-26 18:20 | 44.21571 | 63.78101 | 37252 ft | 537 kts | 91° |
| 2026-04-26 18:21 | 44.21670 | 63.90233 | 37253 ft | 537 kts | 91° |
| 2026-04-26 18:21 | 44.21746 | 64.00664 | 37251 ft | 537 kts | 91° |
| 2026-04-26 18:22 | 44.21812 | 64.11109 | 37253 ft | 537 kts | 91° |
| 2026-04-26 18:22 | 44.22022 | 64.21546 | 37253 ft | 537 kts | 88° |
| 2026-04-26 18:23 | 44.22496 | 64.31903 | 37253 ft | 537 kts | 87° |
| 2026-04-26 18:23 | 44.22983 | 64.42301 | 37252 ft | 536 kts | 87° |
| 2026-04-26 18:24 | 44.23450 | 64.52698 | 37252 ft | 536 kts | 88° |
| 2026-04-26 18:24 | 44.23905 | 64.63098 | 37254 ft | 536 kts | 88° |
| 2026-04-26 18:25 | 44.24352 | 64.73503 | 37253 ft | 536 kts | 88° |
| 2026-04-26 18:25 | 44.24783 | 64.83905 | 37251 ft | 536 kts | 88° |
| 2026-04-26 18:26 | 44.25168 | 64.94238 | 37252 ft | 536 kts | 88° |
| 2026-04-26 18:26 | 44.25544 | 65.04631 | 37255 ft | 536 kts | 88° |
| 2026-04-26 18:27 | 44.25916 | 65.15023 | 37254 ft | 535 kts | 88° |
| 2026-04-26 18:27 | 44.26281 | 65.25429 | 37254 ft | 536 kts | 88° |
| 2026-04-26 18:28 | 44.26637 | 65.35820 | 37254 ft | 535 kts | 89° |
| 2026-04-26 18:28 | 44.26984 | 65.46214 | 37249 ft | 535 kts | 89° |
| 2026-04-26 18:29 | 44.27322 | 65.56610 | 37239 ft | 536 kts | 89° |
| 2026-04-26 18:29 | 44.27649 | 65.67014 | 37251 ft | 536 kts | 89° |
| 2026-04-26 18:30 | 44.27967 | 65.77428 | 37255 ft | 536 kts | 89° |
| 2026-04-26 18:30 | 44.28278 | 65.87840 | 37262 ft | 536 kts | 89° |
| 2026-04-26 18:31 | 44.28578 | 65.98252 | 37252 ft | 536 kts | 89° |
| 2026-04-26 18:31 | 44.28869 | 66.08670 | 37250 ft | 536 kts | 89° |
| 2026-04-26 18:32 | 44.29151 | 66.19079 | 37251 ft | 536 kts | 89° |
| 2026-04-26 18:32 | 44.29427 | 66.29495 | 37251 ft | 536 kts | 90° |
| 2026-04-26 18:33 | 44.29689 | 66.39828 | 37246 ft | 536 kts | 90° |
| 2026-04-26 18:33 | 44.29861 | 66.50236 | 37246 ft | 535 kts | 91° |
| 2026-04-26 18:34 | 44.29917 | 66.60653 | 37234 ft | 536 kts | 91° |
| 2026-04-26 18:34 | 44.29974 | 66.71080 | 37241 ft | 536 kts | 91° |
| 2026-04-26 18:35 | 44.30034 | 66.81509 | 37242 ft | 537 kts | 91° |
| 2026-04-26 18:35 | 44.30090 | 66.91942 | 37242 ft | 537 kts | 91° |
| 2026-04-26 18:36 | 44.30137 | 67.02381 | 37245 ft | 537 kts | 92° |
| 2026-04-26 18:36 | 44.30175 | 67.12803 | 37234 ft | 536 kts | 92° |
| 2026-04-26 18:37 | 44.30203 | 67.23237 | 37225 ft | 536 kts | 92° |
| 2026-04-26 18:37 | 44.30223 | 67.33651 | 37225 ft | 536 kts | 92° |
| 2026-04-26 18:38 | 44.30233 | 67.43997 | 37229 ft | 536 kts | 92° |
| 2026-04-26 18:38 | 44.30327 | 67.54426 | 37212 ft | 537 kts | 88° |
| 2026-04-26 18:39 | 44.30853 | 67.64868 | 37231 ft | 539 kts | 87° |
| 2026-04-26 18:39 | 44.31432 | 67.75314 | 37240 ft | 539 kts | 87° |
| 2026-04-26 18:40 | 44.31994 | 67.85766 | 37217 ft | 538 kts | 87° |
| 2026-04-26 18:40 | 44.32537 | 67.96196 | 37230 ft | 537 kts | 87° |
| 2026-04-26 18:41 | 44.33069 | 68.06624 | 37236 ft | 537 kts | 87° |
| 2026-04-26 18:41 | 44.33591 | 68.17052 | 37229 ft | 537 kts | 87° |
| 2026-04-26 18:42 | 44.34102 | 68.27468 | 37225 ft | 536 kts | 88° |
| 2026-04-26 18:42 | 44.34604 | 68.37856 | 37227 ft | 535 kts | 88° |
| 2026-04-26 18:43 | 44.35096 | 68.48253 | 37224 ft | 535 kts | 88° |
| 2026-04-26 18:43 | 44.35580 | 68.58649 | 37225 ft | 535 kts | 88° |
| 2026-04-26 18:44 | 44.36056 | 68.69037 | 37221 ft | 534 kts | 88° |
| 2026-04-26 18:44 | 44.36443 | 68.77655 | 37219 ft | 534 kts | 88° |
| 2026-04-26 18:45 | 44.36728 | 68.88025 | 37206 ft | 532 kts | 93° |
| 2026-04-26 18:45 | 44.36200 | 68.98320 | 37213 ft | 528 kts | 101° |
| 2026-04-26 18:46 | 44.34824 | 69.10056 | 37211 ft | 525 kts | 103° |
| 2026-04-26 18:46 | 44.33787 | 69.18479 | 37212 ft | 524 kts | 103° |
| 2026-04-26 18:47 | 44.32558 | 69.28542 | 37215 ft | 524 kts | 103° |
| 2026-04-26 18:47 | 44.31331 | 69.38602 | 37213 ft | 524 kts | 103° |
| 2026-04-26 18:48 | 44.30109 | 69.48582 | 37209 ft | 523 kts | 103° |
| 2026-04-26 18:48 | 44.28871 | 69.58596 | 37199 ft | 522 kts | 103° |
| 2026-04-26 18:49 | 44.27627 | 69.68592 | 37207 ft | 521 kts | 103° |
| 2026-04-26 18:49 | 44.26378 | 69.78564 | 37205 ft | 521 kts | 103° |
| 2026-04-26 18:50 | 44.25119 | 69.88541 | 37208 ft | 521 kts | 103° |
| 2026-04-26 18:50 | 44.23852 | 69.98508 | 37203 ft | 521 kts | 103° |
| 2026-04-26 18:51 | 44.22578 | 70.08463 | 37205 ft | 521 kts | 103° |
| 2026-04-26 18:51 | 44.21304 | 70.18346 | 37197 ft | 520 kts | 103° |
| 2026-04-26 18:52 | 44.20016 | 70.28284 | 37201 ft | 520 kts | 103° |
| 2026-04-26 18:52 | 44.18719 | 70.38211 | 37199 ft | 520 kts | 103° |
| 2026-04-26 18:53 | 44.17410 | 70.48139 | 37197 ft | 520 kts | 103° |
| 2026-04-26 18:53 | 44.16098 | 70.58060 | 37194 ft | 520 kts | 103° |
| 2026-04-26 18:54 | 44.14781 | 70.67970 | 37192 ft | 520 kts | 103° |
| 2026-04-26 18:54 | 44.13457 | 70.77883 | 37191 ft | 520 kts | 103° |
| 2026-04-26 18:55 | 44.12127 | 70.87781 | 37182 ft | 519 kts | 103° |
| 2026-04-26 18:55 | 44.10798 | 70.97598 | 37186 ft | 518 kts | 103° |
| 2026-04-26 18:56 | 44.09448 | 71.07454 | 37186 ft | 518 kts | 104° |
| 2026-04-26 18:56 | 44.08090 | 71.17321 | 37175 ft | 518 kts | 104° |
| 2026-04-26 18:57 | 44.06961 | 71.25505 | 37180 ft | 517 kts | 104° |
| 2026-04-26 18:57 | 44.05370 | 71.36975 | 37173 ft | 516 kts | 104° |
| 2026-04-26 18:58 | 44.03998 | 71.46782 | 37165 ft | 516 kts | 104° |
| 2026-04-26 18:58 | 44.02621 | 71.56577 | 37169 ft | 515 kts | 104° |
| 2026-04-26 18:59 | 44.01240 | 71.66355 | 37169 ft | 514 kts | 104° |
| 2026-04-26 18:59 | 43.99856 | 71.76084 | 37169 ft | 513 kts | 104° |
| 2026-04-26 19:00 | 43.98501 | 71.85853 | 37166 ft | 514 kts | 102° |
| 2026-04-26 19:00 | 43.97719 | 71.95749 | 37169 ft | 516 kts | 96° |
| 2026-04-26 19:01 | 43.97233 | 72.05701 | 37164 ft | 516 kts | 96° |
| 2026-04-26 19:01 | 43.96748 | 72.15644 | 37145 ft | 515 kts | 96° |
| 2026-04-26 19:02 | 43.96247 | 72.25554 | 37152 ft | 513 kts | 96° |
| 2026-04-26 19:02 | 43.95820 | 72.33778 | 37146 ft | 513 kts | 96° |
| 2026-04-26 19:03 | 43.95209 | 72.45350 | 37146 ft | 513 kts | 97° |
| 2026-04-26 19:03 | 43.94681 | 72.55179 | 37146 ft | 513 kts | 97° |
| 2026-04-26 19:04 | 43.94141 | 72.65069 | 37146 ft | 513 kts | 97° |
| 2026-04-26 19:04 | 43.93591 | 72.74955 | 37137 ft | 513 kts | 97° |
| 2026-04-26 19:05 | 43.92751 | 72.89789 | 37145 ft | 513 kts | 97° |
| 2026-04-26 19:06 | 43.92180 | 72.99687 | 37129 ft | 513 kts | 97° |
| 2026-04-26 19:06 | 43.91601 | 73.09568 | 37134 ft | 513 kts | 97° |
| 2026-04-26 19:07 | 43.91013 | 73.19456 | 37126 ft | 513 kts | 97° |
| 2026-04-26 19:07 | 43.90416 | 73.29337 | 37138 ft | 513 kts | 97° |
| 2026-04-26 19:08 | 43.89812 | 73.39218 | 37131 ft | 514 kts | 97° |
| 2026-04-26 19:08 | 43.89202 | 73.49043 | 37122 ft | 513 kts | 97° |
| 2026-04-26 19:09 | 43.88581 | 73.58920 | 37128 ft | 513 kts | 97° |
| 2026-04-26 19:09 | 43.87951 | 73.68793 | 37123 ft | 513 kts | 97° |
| 2026-04-26 19:10 | 43.87313 | 73.78659 | 37118 ft | 513 kts | 97° |
| 2026-04-26 19:10 | 43.86667 | 73.88538 | 36986 ft | 514 kts | 97° |
| 2026-04-26 19:10 | 43.86340 | 73.93478 | 36711 ft | 512 kts | 97° |
| 2026-04-26 19:11 | 43.86013 | 73.98383 | 36437 ft | 508 kts | 97° |
| 2026-04-26 19:11 | 43.85688 | 74.03247 | 36170 ft | 504 kts | 97° |
| 2026-04-26 19:11 | 43.85364 | 74.08077 | 35910 ft | 501 kts | 97° |
| 2026-04-26 19:11 | 43.85041 | 74.12880 | 35651 ft | 500 kts | 97° |
| 2026-04-26 19:12 | 43.84714 | 74.17689 | 35325 ft | 500 kts | 97° |
| 2026-04-26 19:12 | 43.84384 | 74.22496 | 34897 ft | 500 kts | 98° |
| 2026-04-26 19:12 | 43.84043 | 74.27250 | 34384 ft | 500 kts | 99° |
| 2026-04-26 19:12 | 43.83555 | 74.32029 | 33784 ft | 499 kts | 102° |
| 2026-04-26 19:13 | 43.82882 | 74.36747 | 33151 ft | 498 kts | 105° |
| 2026-04-26 19:13 | 43.82127 | 74.41439 | 32547 ft | 498 kts | 105° |
| 2026-04-26 19:13 | 43.81363 | 74.46122 | 31932 ft | 498 kts | 105° |
| 2026-04-26 19:13 | 43.80599 | 74.50801 | 31325 ft | 498 kts | 105° |
| 2026-04-26 19:14 | 43.79834 | 74.55488 | 30696 ft | 498 kts | 105° |
| 2026-04-26 19:14 | 43.79069 | 74.60176 | 30034 ft | 499 kts | 105° |
| 2026-04-26 19:14 | 43.78304 | 74.64868 | 29309 ft | 499 kts | 105° |
| 2026-04-26 19:14 | 43.77796 | 74.67983 | 28861 ft | 498 kts | 105° |
| 2026-04-26 19:15 | 43.76773 | 74.74234 | 28009 ft | 497 kts | 105° |
| 2026-04-26 19:15 | 43.76006 | 74.78900 | 27636 ft | 496 kts | 105° |
| 2026-04-26 19:15 | 43.75239 | 74.83559 | 27194 ft | 494 kts | 105° |
| 2026-04-26 19:15 | 43.74478 | 74.88175 | 26708 ft | 490 kts | 105° |
| 2026-04-26 19:16 | 43.73720 | 74.92757 | 26259 ft | 484 kts | 105° |
| 2026-04-26 19:16 | 43.72970 | 74.97281 | 25753 ft | 480 kts | 105° |
| 2026-04-26 19:16 | 43.72235 | 75.01703 | 25308 ft | 475 kts | 105° |
| 2026-04-26 19:16 | 43.71497 | 75.06131 | 24889 ft | 469 kts | 105° |
| 2026-04-26 19:17 | 43.70767 | 75.10497 | 24469 ft | 462 kts | 105° |
| 2026-04-26 19:17 | 43.70045 | 75.14807 | 24060 ft | 456 kts | 105° |
| 2026-04-26 19:17 | 43.69332 | 75.19051 | 23665 ft | 450 kts | 105° |
| 2026-04-26 19:17 | 43.68507 | 75.23197 | 23077 ft | 445 kts | 111° |
| 2026-04-26 19:18 | 43.67413 | 75.27222 | 22171 ft | 449 kts | 114° |
| 2026-04-26 19:18 | 43.66239 | 75.31234 | 21497 ft | 449 kts | 114° |
| 2026-04-26 19:18 | 43.65076 | 75.35218 | 20959 ft | 445 kts | 114° |
| 2026-04-26 19:18 | 43.63938 | 75.39180 | 20409 ft | 442 kts | 114° |
| 2026-04-26 19:19 | 43.62824 | 75.43117 | 19902 ft | 438 kts | 113° |
| 2026-04-26 19:19 | 43.61727 | 75.47023 | 19381 ft | 434 kts | 113° |
| 2026-04-26 19:19 | 43.60642 | 75.50906 | 18861 ft | 431 kts | 113° |
| 2026-04-26 19:19 | 43.59568 | 75.54762 | 18374 ft | 428 kts | 113° |
| 2026-04-26 19:20 | 43.58503 | 75.58587 | 17810 ft | 424 kts | 113° |
| 2026-04-26 19:20 | 43.57803 | 75.61102 | 17445 ft | 422 kts | 113° |
| 2026-04-26 19:20 | 43.56411 | 75.66093 | 16701 ft | 418 kts | 113° |
| 2026-04-26 19:20 | 43.55367 | 75.69832 | 16164 ft | 415 kts | 113° |
| 2026-04-26 19:21 | 43.54329 | 75.73540 | 15598 ft | 414 kts | 113° |
| 2026-04-26 19:21 | 43.53294 | 75.77239 | 15059 ft | 412 kts | 113° |
| 2026-04-26 19:21 | 43.52263 | 75.80915 | 14585 ft | 408 kts | 113° |
| 2026-04-26 19:21 | 43.51245 | 75.84541 | 14189 ft | 403 kts | 113° |
| 2026-04-26 19:22 | 43.50239 | 75.88125 | 13777 ft | 398 kts | 113° |
| 2026-04-26 19:22 | 43.49241 | 75.91667 | 13347 ft | 393 kts | 113° |
| 2026-04-26 19:22 | 43.48267 | 75.95119 | 12937 ft | 388 kts | 113° |
| 2026-04-26 19:22 | 43.47294 | 75.98564 | 12530 ft | 383 kts | 113° |
| 2026-04-26 19:23 | 43.46333 | 76.01961 | 12142 ft | 378 kts | 112° |
| 2026-04-26 19:23 | 43.45382 | 76.05320 | 11747 ft | 374 kts | 112° |
| 2026-04-26 19:23 | 43.44440 | 76.08642 | 11376 ft | 370 kts | 112° |
| 2026-04-26 19:23 | 43.43506 | 76.11929 | 10989 ft | 366 kts | 112° |
| 2026-04-26 19:24 | 43.42583 | 76.15178 | 10652 ft | 361 kts | 112° |
| 2026-04-26 19:24 | 43.41674 | 76.18372 | 10373 ft | 353 kts | 112° |
| 2026-04-26 19:24 | 43.39957 | 76.24411 | 10254 ft | 324 kts | 112° |
| 2026-04-26 19:25 | 43.39152 | 76.27236 | 10218 ft | 310 kts | 112° |
| 2026-04-26 19:25 | 43.38887 | 76.28163 | 10207 ft | 305 kts | 112° |
| 2026-04-26 19:25 | 43.37645 | 76.32516 | 10149 ft | 286 kts | 112° |
| 2026-04-26 19:25 | 43.36924 | 76.35038 | 10127 ft | 281 kts | 112° |
| 2026-04-26 19:26 | 43.36205 | 76.37543 | 9866 ft | 282 kts | 112° |
| 2026-04-26 19:26 | 43.35483 | 76.40054 | 9513 ft | 282 kts | 112° |
| 2026-04-26 19:26 | 43.34761 | 76.42564 | 9192 ft | 282 kts | 112° |
| 2026-04-26 19:26 | 43.34040 | 76.45068 | 8895 ft | 281 kts | 112° |
| 2026-04-26 19:27 | 43.33323 | 76.47560 | 8622 ft | 280 kts | 111° |
| 2026-04-26 19:27 | 43.32607 | 76.50044 | 8312 ft | 278 kts | 111° |
| 2026-04-26 19:27 | 43.31897 | 76.52512 | 8017 ft | 277 kts | 112° |
| 2026-04-26 19:27 | 43.31196 | 76.54945 | 7708 ft | 277 kts | 111° |
| 2026-04-26 19:28 | 43.30483 | 76.57406 | 7396 ft | 277 kts | 111° |
| 2026-04-26 19:28 | 43.29771 | 76.59865 | 7127 ft | 277 kts | 111° |
| 2026-04-26 19:28 | 43.29059 | 76.62320 | 6843 ft | 276 kts | 111° |
| 2026-04-26 19:28 | 43.28349 | 76.64772 | 6576 ft | 276 kts | 111° |
| 2026-04-26 19:29 | 43.27639 | 76.67224 | 6284 ft | 276 kts | 111° |
| 2026-04-26 19:29 | 43.26930 | 76.69667 | 5987 ft | 275 kts | 111° |
| 2026-04-26 19:29 | 43.26219 | 76.72113 | 5700 ft | 274 kts | 111° |
| 2026-04-26 19:29 | 43.25510 | 76.74545 | 5413 ft | 274 kts | 111° |
| 2026-04-26 19:30 | 43.24819 | 76.76951 | 5243 ft | 266 kts | 112° |
| 2026-04-26 19:30 | 43.24204 | 76.79230 | 5124 ft | 243 kts | 99° |
| 2026-04-26 19:30 | 43.24294 | 76.81497 | 5180 ft | 239 kts | 71° |
| 2026-04-26 19:30 | 43.24477 | 76.82193 | 5185 ft | 239 kts | 65° |
| 2026-04-26 19:31 | 43.25967 | 76.85407 | 5013 ft | 238 kts | 53° |
| 2026-04-26 19:31 | 43.26930 | 76.87197 | 4707 ft | 226 kts | 53° |
| 2026-04-26 19:31 | 43.27801 | 76.88910 | 4419 ft | 213 kts | 51° |
| 2026-04-26 19:31 | 43.28620 | 76.90569 | 4143 ft | 204 kts | 51° |
| 2026-04-26 19:32 | 43.29389 | 76.92137 | 3873 ft | 191 kts | 51° |
| 2026-04-26 19:32 | 43.30110 | 76.93605 | 3628 ft | 187 kts | 51° |
| 2026-04-26 19:32 | 43.30841 | 76.95089 | 3411 ft | 188 kts | 51° |
| 2026-04-26 19:32 | 43.31589 | 76.96606 | 3172 ft | 189 kts | 51° |
| 2026-04-26 19:33 | 43.32315 | 76.98078 | 2926 ft | 182 kts | 54° |
| 2026-04-26 19:33 | 43.32998 | 76.99477 | 2637 ft | 173 kts | 57° |
| 2026-04-26 19:33 | 43.33663 | 77.00818 | 2413 ft | 168 kts | 58° |
| 2026-04-26 19:33 | 43.34318 | 77.02141 | 2259 ft | 171 kts | 56° |
| 2026-04-26 19:34 | 43.35023 | 77.03543 | 2890 ft | 185 kts | 57° |
| 2026-04-26 19:34 | 43.35784 | 77.05089 | 3576 ft | 208 kts | 53° |
| 2026-04-26 19:34 | 43.36342 | 77.06256 | 4029 ft | 221 kts | 54° |
| 2026-04-26 19:34 | 43.37408 | 77.08684 | 4906 ft | 232 kts | 56° |
| 2026-04-26 19:35 | 43.37973 | 77.09994 | 5122 ft | 248 kts | 56° |
| 2026-04-26 19:35 | 43.39008 | 77.11930 | 5150 ft | 252 kts | 36° |
| 2026-04-26 19:35 | 43.40546 | 77.12963 | 5159 ft | 245 kts | 4° |
| 2026-04-26 19:35 | 43.42191 | 77.12761 | 5179 ft | 236 kts | 333° |
| 2026-04-26 19:36 | 43.43464 | 77.11428 | 5190 ft | 230 kts | 302° |
| 2026-04-26 19:36 | 43.43920 | 77.10089 | 5195 ft | 229 kts | 281° |
| 2026-04-26 19:36 | 43.43631 | 77.07273 | 5204 ft | 232 kts | 244° |
| 2026-04-26 19:36 | 43.42750 | 77.05398 | 5216 ft | 234 kts | 237° |
| 2026-04-26 19:37 | 43.41777 | 77.03612 | 5203 ft | 233 kts | 236° |
| 2026-04-26 19:37 | 43.40881 | 77.01767 | 5193 ft | 230 kts | 245° |
| 2026-04-26 19:37 | 43.40195 | 76.99778 | 5197 ft | 231 kts | 248° |
| 2026-04-26 19:37 | 43.39532 | 76.97765 | 5200 ft | 231 kts | 248° |
| 2026-04-26 19:38 | 43.38853 | 76.95765 | 5195 ft | 230 kts | 247° |
| 2026-04-26 19:38 | 43.38166 | 76.93781 | 5189 ft | 230 kts | 247° |
| 2026-04-26 19:38 | 43.37468 | 76.91792 | 5194 ft | 230 kts | 246° |
| 2026-04-26 19:38 | 43.36766 | 76.89813 | 5195 ft | 230 kts | 246° |
| 2026-04-26 19:39 | 43.36059 | 76.87837 | 5194 ft | 230 kts | 246° |
| 2026-04-26 19:39 | 43.35350 | 76.85860 | 5185 ft | 232 kts | 246° |
| 2026-04-26 19:39 | 43.34625 | 76.83846 | 5199 ft | 236 kts | 247° |
| 2026-04-26 19:39 | 43.33897 | 76.81815 | 5202 ft | 237 kts | 247° |
| 2026-04-26 19:40 | 43.33166 | 76.79776 | 5198 ft | 238 kts | 247° |
| 2026-04-26 19:40 | 43.32268 | 76.77847 | 5179 ft | 244 kts | 227° |
| 2026-04-26 19:40 | 43.30829 | 76.76586 | 5189 ft | 251 kts | 200° |
| 2026-04-26 19:40 | 43.29088 | 76.76335 | 5224 ft | 256 kts | 172° |
| 2026-04-26 19:41 | 43.27425 | 76.77201 | 5226 ft | 259 kts | 148° |
| 2026-04-26 19:41 | 43.25950 | 76.78629 | 5213 ft | 258 kts | 134° |
| 2026-04-26 19:41 | 43.25054 | 76.80641 | 5223 ft | 242 kts | 104° |
| 2026-04-26 19:41 | 43.24958 | 76.82125 | 5238 ft | 231 kts | 83° |
| 2026-04-26 19:42 | 43.25729 | 76.84648 | 5220 ft | 209 kts | 56° |
| 2026-04-26 19:42 | 43.26579 | 76.86222 | 5024 ft | 202 kts | 53° |
| 2026-04-26 19:42 | 43.27409 | 76.87745 | 4724 ft | 195 kts | 51° |
| 2026-04-26 19:42 | 43.28182 | 76.89237 | 4461 ft | 189 kts | 50° |
| 2026-04-26 19:43 | 43.28911 | 76.90691 | 4219 ft | 182 kts | 50° |
| 2026-04-26 19:43 | 43.29619 | 76.92124 | 4003 ft | 180 kts | 51° |
| 2026-04-26 19:43 | 43.30320 | 76.93551 | 3779 ft | 180 kts | 52° |
| 2026-04-26 19:43 | 43.31024 | 76.94987 | 3551 ft | 181 kts | 51° |
| 2026-04-26 19:44 | 43.31731 | 76.96426 | 3323 ft | 183 kts | 51° |
| 2026-04-26 19:44 | 43.32445 | 76.97869 | 3116 ft | 181 kts | 52° |
| 2026-04-26 19:44 | 43.33146 | 76.99301 | 2846 ft | 179 kts | 53° |
| 2026-04-26 19:44 | 43.33842 | 77.00698 | 2613 ft | 175 kts | 57° |
| 2026-04-26 19:45 | 43.34512 | 77.02072 | 2353 ft | 171 kts | 55° |
| 2026-04-26 19:45 | 43.35154 | 77.03367 | 2242 ft | 142 kts | 57° |
| 2026-04-26 19:45 | 43.35562 | 77.04189 | 2235 ft | 71 kts | 56° |
| 2026-04-26 19:45 | 43.35815 | 77.04700 | 2241 ft | 44 kts | 55° |
| 2026-04-26 19:46 | 43.35916 | 77.04902 | 2235 ft | 11 kts | 56° |
| 2026-04-26 19:46 | 43.35944 | 77.04959 | 2242 ft | 8 kts | 56° |
| 2026-04-26 19:46 | 43.35970 | 77.05018 | 2242 ft | 8 kts | 69° |
| 2026-04-26 19:46 | 43.35951 | 77.05094 | 2242 ft | 12 kts | 141° |
| 2026-04-26 19:47 | 43.35881 | 77.05159 | 2243 ft | 12 kts | 148° |
| 2026-04-26 19:47 | 43.35830 | 77.05153 | 2244 ft | 13 kts | 214° |
| 2026-04-26 19:47 | 43.35737 | 77.05000 | 2243 ft | 20 kts | 235° |
| 2026-04-26 19:47 | 43.35657 | 77.04839 | 2245 ft | 21 kts | 236° |
| 2026-04-26 19:48 | 43.35570 | 77.04664 | 2244 ft | 24 kts | 235° |
| 2026-04-26 19:48 | 43.35472 | 77.04467 | 2244 ft | 26 kts | 236° |
| 2026-04-26 19:48 | 43.35368 | 77.04255 | 2242 ft | 27 kts | 236° |
| 2026-04-26 19:48 | 43.35257 | 77.04033 | 2235 ft | 29 kts | 235° |
| 2026-04-26 19:49 | 43.35143 | 77.03806 | 2241 ft | 29 kts | 235° |
| 2026-04-26 19:49 | 43.35031 | 77.03580 | 2242 ft | 29 kts | 236° |
| 2026-04-26 19:49 | 43.34914 | 77.03346 | 2237 ft | 30 kts | 235° |
| 2026-04-26 19:49 | 43.34803 | 77.03115 | 2237 ft | 24 kts | 244° |
| 2026-04-26 19:50 | 43.34780 | 77.02882 | 2240 ft | 25 kts | 268° |
| 2026-04-26 19:50 | 43.34772 | 77.02633 | 2233 ft | 26 kts | 266° |
| 2026-04-26 19:50 | 43.34772 | 77.02481 | 2239 ft | 11 kts | 274° |
| 2026-04-26 19:50 | 43.34779 | 77.02362 | 2240 ft | 14 kts | 275° |
| 2026-04-26 19:51 | 43.34786 | 77.02221 | 2237 ft | 16 kts | 273° |
| 2026-04-26 19:51 | 43.34792 | 77.02057 | 2240 ft | 17 kts | 272° |
| 2026-04-26 19:51 | 43.34795 | 77.01937 | 2240 ft | 11 kts | 272° |
| 2026-04-26 19:51 | 43.34801 | 77.01824 | 2235 ft | 13 kts | 275° |
| 2026-04-26 19:52 | 43.34809 | 77.01695 | 2238 ft | 11 kts | 275° |
| 2026-04-26 19:52 | 43.34815 | 77.01606 | 2232 ft | 7 kts | 282° |
| 2026-04-26 19:52 | 43.34816 | 77.01603 | 2240 ft | 0 kts | 286° |
| 2026-04-26 19:52 | 43.34825 | 77.01566 | 2240 ft | 15 kts | 291° |
| 2026-04-26 19:53 | 43.34896 | 77.01483 | 2237 ft | 13 kts | 339° |
| 2026-04-26 19:53 | 43.34990 | 77.01437 | 2237 ft | 15 kts | 336° |
| 2026-04-26 19:53 | 43.35031 | 77.01387 | 2237 ft | 6 kts | 265° |
| 2026-04-26 19:53 | 43.34994 | 77.01349 | 2240 ft | 8 kts | 206° |
| 2026-04-26 19:54 | 43.34968 | 77.01294 | 2235 ft | 5 kts | 249° |
| 2026-04-26 19:54 | 43.34966 | 77.01284 | 2240 ft | 0 kts | 250° |